Aviation Digital Data Service (ADDS)

Output produced by METARs form (1658 UTC 17 October 2021)
found at http://aviationweather.gov/metar/data/
 
METAR text: KCHD 171547Z 00000KT 10SM CLR 23/04 A3002
Conditions at: KCHD (CHANDLER , AZ, US) observed 1547 UTC 17 October 2021
Temperature: 23.0°C (73°F)
Dewpoint: 4.0°C (39°F) [RH = 29%]
Pressure (altimeter): 30.02 inches Hg (1016.7 mb)
Winds: calm
Visibility: 10 or more miles (16+ km)
Ceiling: at least 12,000 feet AGL
Clouds: sky clear below 12,000 feet AGL
Weather: no significant weather observed at this time

METAR text: KCHD 171447Z VRB04KT 10SM CLR 20/03 A3000
Conditions at: KCHD (CHANDLER , AZ, US) observed 1447 UTC 17 October 2021
Temperature: 20.0°C (68°F)
Dewpoint: 3.0°C (37°F) [RH = 32%]
Pressure (altimeter): 30.00 inches Hg (1016.0 mb)
Winds: variable direction winds at 5 MPH (4 knots; 2.1 m/s)
Visibility: 10 or more miles (16+ km)
Ceiling: at least 12,000 feet AGL
Clouds: sky clear below 12,000 feet AGL
Weather: no significant weather observed at this time

METAR text: KCHD 171347Z 14003KT 10SM CLR 17/05 A2999
Conditions at: KCHD (CHANDLER , AZ, US) observed 1347 UTC 17 October 2021
Temperature: 17.0°C (63°F)
Dewpoint: 5.0°C (41°F) [RH = 45%]
Pressure (altimeter): 29.99 inches Hg (1015.7 mb)
Winds: from the SE (140 degrees) at 3 MPH (3 knots; 1.5 m/s)
Visibility: 10 or more miles (16+ km)
Ceiling: at least 12,000 feet AGL
Clouds: sky clear below 12,000 feet AGL
Weather: no significant weather observed at this time

METAR text: KCHD 171247Z 20005KT 10SM CLR 17/05 A2998
Conditions at: KCHD (CHANDLER , AZ, US) observed 1247 UTC 17 October 2021
Temperature: 17.0°C (63°F)
Dewpoint: 5.0°C (41°F) [RH = 45%]
Pressure (altimeter): 29.98 inches Hg (1015.3 mb)
Winds: from the SSW (200 degrees) at 6 MPH (5 knots; 2.6 m/s)
Visibility: 10 or more miles (16+ km)
Ceiling: at least 12,000 feet AGL
Clouds: sky clear below 12,000 feet AGL
Weather: no significant weather observed at this time